Big Bear Station Historical Data
Daily Summary for April 7, 2019 Units:  English    Metric   Both
Next Day »
Daily Weekly Monthly Yearly Custom
  High: Low: Average:
Temperature: 67.8 °F 31.3 °F 47.5 °F
Dew Point: 41.0 °F 28.6 °F 33.8 °F
Humidity: 92% 29% 64%
Wind Speed: 7.8mph 0.0mph 1.3mph
Wind Gust: -999.0mph - -
Wind- - NNW
Pressure: 23.71 in 23.61 in -
Precipitation: 0.00 in    
Historical Graphs
 
 
Tabular Data for April 7, 2019
Time Temperature Dew Point Pressure Wind Wind Speed Wind Gust Humidity Rainfall Rate (Hourly)
00:06 37.0 °F 31.1 °F 23.61 in Calm   -999.0 mph 79% 0.00 in
00:21 36.0 °F 30.1 °F 23.62 in Calm   -999.0 mph 79% 0.00 in
00:36 35.6 °F 30.9 °F 23.62 in Calm   -999.0 mph 83% 0.00 in
00:51 34.7 °F 30.1 °F 23.62 in Calm   -999.0 mph 83% 0.00 in
01:06 34.5 °F 29.9 °F 23.61 in Calm   -999.0 mph 83% 0.00 in
01:22 34.2 °F 29.9 °F 23.62 in Calm   -999.0 mph 84% 0.00 in
01:37 33.8 °F 29.8 °F 23.62 in Calm   -999.0 mph 85% 0.00 in
01:52 33.6 °F 29.6 °F 23.62 in Calm   -999.0 mph 85% 0.00 in
02:07 33.1 °F 29.1 °F 23.62 in Calm   -999.0 mph 85% 0.00 in
02:22 33.3 °F 29.6 °F 23.62 in Calm   -999.0 mph 86% 0.00 in
02:38 32.7 °F 29.3 °F 23.62 in Calm   -999.0 mph 87% 0.00 in
02:53 32.9 °F 29.7 °F 23.62 in Calm   -999.0 mph 88% 0.00 in
03:08 32.5 °F 29.3 °F 23.62 in Calm   -999.0 mph 88% 0.00 in
03:23 32.4 °F 29.2 °F 23.61 in Calm   -999.0 mph 88% 0.00 in
03:38 32.2 °F 29.0 °F 23.61 in Calm   -999.0 mph 88% 0.00 in
03:54 32.2 °F 29.0 °F 23.61 in Calm   -999.0 mph 88% 0.00 in
04:09 32.0 °F 28.6 °F 23.62 in Calm   -999.0 mph 87% 0.00 in
04:24 32.0 °F 28.8 °F 23.62 in Calm   -999.0 mph 88% 0.00 in
04:39 31.8 °F 28.7 °F 23.62 in Calm   -999.0 mph 88% 0.00 in
04:55 31.8 °F 28.9 °F 23.61 in Calm   -999.0 mph 89% 0.00 in
05:10 31.8 °F 29.2 °F 23.62 in Calm   -999.0 mph 90% 0.00 in
05:25 31.6 °F 29.3 °F 23.63 in Calm   -999.0 mph 91% 0.00 in
05:40 31.3 °F 29.0 °F 23.63 in Calm   -999.0 mph 91% 0.00 in
05:55 31.6 °F 29.5 °F 23.63 in Calm   -999.0 mph 92% 0.00 in
06:11 31.6 °F 29.5 °F 23.64 in Calm   -999.0 mph 92% 0.00 in
06:26 32.0 °F 29.9 °F 23.64 in Calm   -999.0 mph 92% 0.00 in
06:41 32.0 °F 29.9 °F 23.65 in Calm   -999.0 mph 92% 0.00 in
06:56 32.0 °F 29.9 °F 23.65 in Calm   -999.0 mph 92% 0.00 in
07:11 32.5 °F 30.2 °F 23.65 in Calm   -999.0 mph 91% 0.00 in
07:27 34.5 °F 31.3 °F 23.65 in Calm   -999.0 mph 88% 0.00 in
07:42 34.7 °F 31.8 °F 23.66 in Calm   -999.0 mph 89% 0.00 in
07:58 35.6 °F 32.4 °F 23.67 in Calm   -999.0 mph 88% 0.00 in
08:13 35.8 °F 32.3 °F 23.67 in Calm   -999.0 mph 87% 0.00 in
08:28 36.3 °F 32.8 °F 23.67 in Calm   -999.0 mph 87% 0.00 in
08:43 37.9 °F 34.1 °F 23.67 in Calm   -999.0 mph 86% 0.00 in
08:58 42.1 °F 34.7 °F 23.67 in Calm   -999.0 mph 75% 0.00 in
09:14 43.7 °F 37.3 °F 23.67 in Calm   -999.0 mph 78% 0.00 in
09:29 45.1 °F 32.5 °F 23.68 in Calm   -999.0 mph 61% 0.00 in
09:44 47.1 °F 31.3 °F 23.68 in Calm   -999.0 mph 54% 0.00 in
09:59 49.3 °F 34.7 °F 23.67 in Calm   -999.0 mph 57% 0.00 in
10:15 52.0 °F 37.2 °F 23.67 in Calm   -999.0 mph 57% 0.00 in
10:30 56.8 °F 32.1 °F 23.68 in WNW 3.2 mph -999.0 mph 39% 0.00 in
10:45 60.8 °F 30.7 °F 23.68 in WNW 6.3 mph -999.0 mph 32% 0.00 in
11:00 61.2 °F 30.3 °F 23.68 in NNW 4.2 mph -999.0 mph 31% 0.00 in
11:16 64.0 °F 31.1 °F 23.67 in NW 5.3 mph -999.0 mph 29% 0.00 in
11:31 65.3 °F 32.2 °F 23.68 in North 2.2 mph -999.0 mph 29% 0.00 in
11:46 65.1 °F 36.0 °F 23.67 in NW 3.7 mph -999.0 mph 34% 0.00 in
12:02 63.9 °F 35.7 °F 23.67 in NNW 4.2 mph -999.0 mph 35% 0.00 in
12:17 64.4 °F 36.1 °F 23.68 in NW 5.8 mph -999.0 mph 35% 0.00 in
12:32 64.4 °F 36.1 °F 23.68 in NNW 2.2 mph -999.0 mph 35% 0.00 in
12:47 64.8 °F 36.5 °F 23.68 in NW 4.7 mph -999.0 mph 35% 0.00 in
13:03 63.3 °F 37.9 °F 23.68 in NW 3.2 mph -999.0 mph 39% 0.00 in
13:18 63.1 °F 39.0 °F 23.67 in NW 5.3 mph -999.0 mph 41% 0.00 in
13:33 65.7 °F 38.0 °F 23.67 in NW 7.8 mph -999.0 mph 36% 0.00 in
13:49 66.0 °F 39.7 °F 23.67 in NNW 5.3 mph -999.0 mph 38% 0.00 in
14:04 66.7 °F 37.4 °F 23.67 in NNW 5.3 mph -999.0 mph 34% 0.00 in
14:19 67.8 °F 39.1 °F 23.67 in NW 4.7 mph -999.0 mph 35% 0.00 in
14:35 67.3 °F 40.8 °F 23.67 in NW 4.2 mph -999.0 mph 38% 0.00 in
14:50 65.3 °F 39.7 °F 23.67 in NW 7.8 mph -999.0 mph 39% 0.00 in
15:05 64.0 °F 39.8 °F 23.68 in NNW 6.8 mph -999.0 mph 41% 0.00 in
15:20 63.5 °F 39.4 °F 23.68 in NNW 7.8 mph -999.0 mph 41% 0.00 in
15:35 63.0 °F 38.3 °F 23.68 in NW 7.3 mph -999.0 mph 40% 0.00 in
15:51 62.2 °F 38.8 °F 23.69 in NNW 5.8 mph -999.0 mph 42% 0.00 in
16:06 62.8 °F 38.7 °F 23.68 in NNW 3.2 mph -999.0 mph 41% 0.00 in
16:21 63.7 °F 39.6 °F 23.68 in NW 3.7 mph -999.0 mph 41% 0.00 in
16:36 64.0 °F 38.5 °F 23.68 in North 2.7 mph -999.0 mph 39% 0.00 in
16:51 65.1 °F 37.5 °F 23.67 in North 2.2 mph -999.0 mph 36% 0.00 in
17:07 66.0 °F 36.8 °F 23.67 in Calm   -999.0 mph 34% 0.00 in
17:23 66.6 °F 36.6 °F 23.66 in NW 2.7 mph -999.0 mph 33% 0.00 in
17:38 65.8 °F 35.9 °F 23.66 in Calm   -999.0 mph 33% 0.00 in
17:53 66.2 °F 35.5 °F 23.66 in Calm   -999.0 mph 32% 0.00 in
18:08 62.6 °F 41.0 °F 23.65 in Calm   -999.0 mph 45% 0.00 in
18:23 61.3 °F 37.4 °F 23.66 in Calm   -999.0 mph 41% 0.00 in
18:39 59.4 °F 39.7 °F 23.66 in Calm   -999.0 mph 48% 0.00 in
18:54 57.7 °F 39.7 °F 23.66 in Calm   -999.0 mph 51% 0.00 in
19:09 55.4 °F 39.5 °F 23.66 in Calm   -999.0 mph 55% 0.00 in
19:24 52.7 °F 38.8 °F 23.66 in Calm   -999.0 mph 59% 0.00 in
19:39 50.9 °F 37.5 °F 23.67 in Calm   -999.0 mph 60% 0.00 in
19:55 49.6 °F 36.7 °F 23.68 in Calm   -999.0 mph 61% 0.00 in
20:10 48.2 °F 36.6 °F 23.68 in Calm   -999.0 mph 64% 0.00 in
20:25 46.8 °F 36.4 °F 23.68 in Calm   -999.0 mph 67% 0.00 in
20:40 46.2 °F 35.1 °F 23.69 in Calm   -999.0 mph 65% 0.00 in
20:55 45.7 °F 35.0 °F 23.69 in Calm   -999.0 mph 66% 0.00 in
21:11 45.3 °F 35.4 °F 23.69 in Calm   -999.0 mph 68% 0.00 in
21:26 44.8 °F 34.1 °F 23.70 in Calm   -999.0 mph 66% 0.00 in
21:41 43.7 °F 33.5 °F 23.70 in Calm   -999.0 mph 67% 0.00 in
21:56 43.0 °F 33.5 °F 23.71 in Calm   -999.0 mph 69% 0.00 in
22:11 42.4 °F 33.3 °F 23.71 in Calm   -999.0 mph 70% 0.00 in
22:27 41.7 °F 33.0 °F 23.71 in Calm   -999.0 mph 71% 0.00 in
22:42 41.4 °F 33.4 °F 23.71 in Calm   -999.0 mph 73% 0.00 in
22:57 40.8 °F 33.2 °F 23.71 in Calm   -999.0 mph 74% 0.00 in
23:12 40.3 °F 32.7 °F 23.71 in Calm   -999.0 mph 74% 0.00 in
23:28 39.7 °F 32.8 °F 23.71 in Calm   -999.0 mph 76% 0.00 in
23:43 39.2 °F 32.6 °F 23.71 in Calm   -999.0 mph 77% 0.00 in
23:58 38.8 °F 30.9 °F 23.71 in Calm   -999.0 mph 73% 0.00 in
Big Bear CA Weather